Green Oaks, Illinois
Current Conditions -  °F | °C
As of 9:52 AM on Sunday 23 Nov 2014 (Local Time) from KPWK Reporting Station
Overcast Overcast  
Wind Chill: 50°   Ceiling: 4900
Heat Index: 50°   Visibility: 9mi
Dew Point: 45°   Wind: 13mph
Humidity: 83%   Direction: 180°S
Pressure: 29.73"   Gusts: NA
Location:  42.2369°N, 87.8684°W
Report Text: KPWK 231552Z 18011KT 9SM BKN049 BKN060 OVC090 10/07 A2973 RMK AO2 RAB19E36 SLP069 P0000 T01000072
Loading
Personal Weather Stations






























Interactive Weather Map New forecast layout! Learn more

10-Day Weather Forecast

Advertisements
Track Severe Weather on mobile